Time;durP1;ratioP1;P1;durP2;ratioP2;P2;SDS_P1;SDS_P2;PMS_P1;PMS_P2;Temp;Humidity;BMP_temperature;BMP_pressure;BME280_temperature;BME280_humidity;BME280_pressure;Samples;Min_cycle;Max_cycle;Signal;HPM_P1;HPM_P2
2021/09/12 00:02:09;;;;;;;97.43;45.97;;;;;;;17.47;100.00;101266.13;4946197;28;20075;-89
2021/09/12 00:04:35;;;;;;;98.22;47.03;;;;;;;17.51;100.00;101266.56;4925859;28;20094;-87
2021/09/12 00:07:00;;;;;;;101.22;47.63;;;;;;;17.45;100.00;101267.34;4913091;28;20482;-88
2021/09/12 00:09:25;;;;;;;102.68;46.90;;;;;;;17.46;100.00;101274.44;4930148;28;20591;-88
2021/09/12 00:11:51;;;;;;;97.43;46.72;;;;;;;17.41;100.00;101283.19;4929174;28;20097;-88
2021/09/12 00:14:17;;;;;;;92.10;43.58;;;;;;;17.39;100.00;101279.00;4929701;28;20392;-89
2021/09/12 00:16:42;;;;;;;91.72;44.97;;;;;;;17.42;100.00;101267.75;4915939;28;20058;-88
2021/09/12 00:19:08;;;;;;;83.78;43.67;;;;;;;17.39;100.00;101268.16;4956109;28;20045;-88
2021/09/12 00:21:33;;;;;;;92.70;42.88;;;;;;;17.40;100.00;101264.38;5007050;28;20548;-88
2021/09/12 00:23:59;;;;;;;93.57;44.17;;;;;;;17.40;100.00;101258.97;5005771;28;20125;-88
2021/09/12 00:26:24;;;;;;;88.22;41.50;;;;;;;17.37;100.00;101255.59;4941630;28;20046;-87
2021/09/12 00:28:50;;;;;;;91.57;42.97;;;;;;;17.32;100.00;101255.38;4958682;28;20035;-88
2021/09/12 00:31:15;;;;;;;96.53;45.58;;;;;;;17.39;100.00;101257.31;5001351;28;20042;-88
2021/09/12 00:33:40;;;;;;;89.88;45.45;;;;;;;17.39;100.00;101255.41;5022789;28;20043;-89
2021/09/12 00:36:06;;;;;;;97.22;44.58;;;;;;;17.39;100.00;101257.31;4982325;28;20028;-90
2021/09/12 00:38:31;;;;;;;92.57;45.97;;;;;;;17.35;100.00;101252.28;4965037;28;20065;-88
2021/09/12 00:40:58;;;;;;;89.03;41.58;;;;;;;17.30;100.00;101248.47;4979359;28;20035;-88
2021/09/12 00:43:23;;;;;;;86.15;41.05;;;;;;;17.27;100.00;101244.28;5032025;28;20483;-88
2021/09/12 00:45:57;;;;;;;90.22;42.75;;;;;;;17.26;100.00;101242.63;5023869;28;20039;-88
2021/09/12 00:48:26;;;;;;;83.75;40.00;;;;;;;17.25;100.00;101251.75;5069102;28;20037;-88
2021/09/12 00:50:51;;;;;;;80.13;39.72;;;;;;;17.24;100.00;101241.97;4994945;28;20582;-90
2021/09/12 00:53:18;;;;;;;90.78;42.15;;;;;;;17.24;100.00;101243.84;4992196;28;20119;-88
2021/09/12 00:55:45;;;;;;;86.70;39.97;;;;;;;17.26;100.00;101252.59;5037266;28;20133;-90
2021/09/12 00:58:17;;;;;;;82.22;40.97;;;;;;;17.27;100.00;101244.28;5068102;28;20041;-89
2021/09/12 01:00:43;;;;;;;83.88;40.03;;;;;;;17.22;100.00;101246.75;5048385;28;20049;-88
2021/09/12 01:03:09;;;;;;;74.38;39.50;;;;;;;17.23;100.00;101253.81;5030437;28;20098;-89
2021/09/12 01:05:35;;;;;;;81.85;36.67;;;;;;;17.24;100.00;101249.25;4999389;28;20042;-89
2021/09/12 01:08:07;;;;;;;73.03;35.85;;;;;;;17.20;100.00;101243.38;4974851;28;20051;-88
2021/09/12 01:10:46;;;;;;;81.47;37.75;;;;;;;17.19;100.00;101241.72;4982734;28;20066;-88
2021/09/12 01:13:16;;;;;;;73.07;37.67;;;;;;;17.19;100.00;101249.00;5034938;28;20057;-89
2021/09/12 01:15:43;;;;;;;64.75;34.05;;;;;;;17.14;100.00;101244.16;4971045;28;20100;-89
2021/09/12 01:18:19;;;;;;;67.70;34.72;;;;;;;17.16;100.00;101242.09;4958467;28;20121;-89
2021/09/12 01:21:04;;;;;;;63.50;31.02;;;;;;;17.12;100.00;101241.66;4968917;28;20171;-89
2021/09/12 01:24:11;;;;;;;65.35;33.10;;;;;;;17.11;100.00;101234.53;4984793;28;20799;-88
2021/09/12 01:30:07;;;;;;;61.58;31.55;;;;;;;17.05;100.00;101235.34;4982048;28;20049;-88
2021/09/12 01:32:54;;;;;;;65.25;33.45;;;;;;;17.03;100.00;101229.28;4975803;28;20397;-89
2021/09/12 01:35:20;;;;;;;67.32;33.72;;;;;;;17.06;100.00;101237.03;4964797;28;20046;-89
2021/09/12 01:38:01;;;;;;;59.83;31.48;;;;;;;17.02;100.00;101237.59;4969560;28;20717;-89
2021/09/12 01:40:27;;;;;;;64.35;31.20;;;;;;;16.98;100.00;101236.34;4992461;28;20065;-90
2021/09/12 01:42:58;;;;;;;64.63;32.63;;;;;;;17.04;100.00;101227.41;4969429;28;20050;-88
2021/09/12 01:45:29;;;;;;;62.08;30.70;;;;;;;17.03;100.00;101225.72;4975842;28;20050;-89
2021/09/12 01:48:20;;;;;;;65.15;33.15;;;;;;;17.01;100.00;101234.06;4969206;28;20034;-90
2021/09/12 01:51:05;;;;;;;63.10;32.05;;;;;;;17.03;100.00;101231.13;4969594;28;20051;-89
2021/09/12 01:53:41;;;;;;;59.75;32.53;;;;;;;16.99;100.00;101225.28;5070341;28;20056;-89
2021/09/12 01:56:15;;;;;;;64.25;31.27;;;;;;;16.95;100.00;101237.56;5055477;28;20137;-89
2021/09/12 02:01:54;;;;;;;61.95;32.35;;;;;;;16.96;100.00;101231.09;5056802;28;20097;-89
2021/09/12 02:04:21;;;;;;;63.22;31.73;;;;;;;16.96;100.00;101232.97;4987854;28;20042;-89
2021/09/12 02:07:28;;;;;;;65.90;33.65;;;;;;;16.89;100.00;101236.47;4980510;28;20483;-90
2021/09/12 02:09:59;;;;;;;64.00;30.40;;;;;;;16.86;100.00;101230.56;4990230;28;20061;-89
2021/09/12 02:12:32;;;;;;;59.80;31.85;;;;;;;16.84;100.00;101233.50;4993958;28;20042;-89
2021/09/12 02:15:04;;;;;;;65.32;32.42;;;;;;;16.85;100.00;101237.88;4972205;28;20077;-89
2021/09/12 02:18:02;;;;;;;64.28;33.20;;;;;;;16.86;100.00;101236.88;4999628;28;20093;-89
2021/09/12 02:21:02;;;;;;;67.72;33.03;;;;;;;16.84;100.00;101240.78;5019566;28;20499;-90
2021/09/12 02:23:48;;;;;;;66.47;32.60;;;;;;;16.80;100.00;101232.22;5026385;28;20049;-90
2021/09/12 02:26:16;;;;;;;63.35;29.98;;;;;;;16.74;100.00;101234.81;4951031;28;20035;-90
2021/09/12 02:29:19;;;;;;;62.05;30.42;;;;;;;16.78;100.00;101231.56;4997971;28;20102;-89
2021/09/12 02:31:56;;;;;;;64.53;32.00;;;;;;;16.74;100.00;101227.53;4972748;28;20022;-89
2021/09/12 02:34:27;;;;;;;58.47;29.10;;;;;;;16.71;100.00;101222.50;4981994;28;20501;-89
2021/09/12 02:37:21;;;;;;;61.85;31.77;;;;;;;16.74;100.00;101226.69;4946342;28;20039;-89
2021/09/12 02:39:50;;;;;;;63.08;33.42;;;;;;;16.74;100.00;101230.22;4984520;28;20076;-90
2021/09/12 02:42:55;;;;;;;68.32;31.42;;;;;;;16.72;100.00;101235.03;5002221;28;20046;-89
2021/09/12 02:45:37;;;;;;;57.38;29.80;;;;;;;16.64;100.00;101236.00;5055217;28;20039;-88
2021/09/12 02:48:05;;;;;;;66.35;31.33;;;;;;;16.61;100.00;101238.25;5002435;28;20057;-92
2021/09/12 02:50:34;;;;;;;60.83;30.52;;;;;;;16.60;100.00;101234.72;4970183;28;20549;-91
2021/09/12 02:53:10;;;;;;;63.22;30.85;;;;;;;16.58;100.00;101244.88;4967046;28;20039;-90
2021/09/12 02:56:06;;;;;;;65.05;30.08;;;;;;;16.57;100.00;101236.94;4986509;28;20242;-91
2021/09/12 02:58:33;;;;;;;64.18;29.98;;;;;;;16.55;100.00;101241.72;5056188;28;20042;-90
2021/09/12 03:04:24;;;;;;;62.13;29.27;;;;;;;16.56;100.00;101246.09;5063741;28;20082;-91
2021/09/12 03:07:17;;;;;;;57.78;29.35;;;;;;;16.56;100.00;101240.69;4978171;28;20442;-91
2021/09/12 03:13:04;;;;;;;64.55;30.10;;;;;;;16.53;100.00;101249.22;4983083;28;20048;-89
2021/09/12 03:19:20;;;;;;;54.22;29.27;;;;;;;16.51;100.00;101253.97;5010650;28;20094;-92
2021/09/12 03:21:58;;;;;;;56.20;27.80;;;;;;;16.52;100.00;101242.13;4962652;28;20038;-90
2021/09/12 03:24:28;;;;;;;58.35;28.65;;;;;;;16.51;100.00;101251.25;4978894;28;20694;-90
2021/09/12 03:27:04;;;;;;;55.08;28.40;;;;;;;16.49;100.00;101248.75;4967494;28;20085;-91
2021/09/12 03:29:56;;;;;;;55.10;26.95;;;;;;;16.50;100.00;101249.59;4973223;28;20125;-90
2021/09/12 03:32:29;;;;;;;52.28;27.27;;;;;;;16.46;100.00;101243.72;4970573;28;20050;-89
2021/09/12 03:35:04;;;;;;;53.60;27.08;;;;;;;16.50;100.00;101250.44;4977439;28;20094;-89
2021/09/12 03:37:37;;;;;;;55.47;28.63;;;;;;;16.47;100.00;101232.69;4994053;28;20482;-89
2021/09/12 03:40:08;;;;;;;59.22;28.23;;;;;;;16.50;100.00;101233.34;4963722;28;20395;-90
2021/09/12 03:42:58;;;;;;;58.45;26.88;;;;;;;16.45;100.00;101233.91;4989370;28;20417;-92
2021/09/12 03:45:26;;;;;;;48.85;26.17;;;;;;;16.45;100.00;101240.16;5030824;28;20130;-90
2021/09/12 03:47:52;;;;;;;48.35;25.67;;;;;;;16.46;100.00;101238.31;4983103;28;20042;-90
2021/09/12 03:50:35;;;;;;;43.63;24.25;;;;;;;16.41;100.00;101238.03;4973049;28;20778;-90
2021/09/12 03:53:25;;;;;;;51.80;26.30;;;;;;;16.41;100.00;101246.16;4989322;28;20117;-90
2021/09/12 03:55:51;;;;;;;52.35;26.35;;;;;;;16.43;100.00;101247.66;4991261;28;20505;-90
2021/09/12 03:58:53;;;;;;;43.38;24.95;;;;;;;16.39;100.00;101240.94;4989410;28;20498;-90
2021/09/12 04:01:37;;;;;;;42.95;24.80;;;;;;;16.30;100.00;101235.81;5054707;28;20050;-91
2021/09/12 04:04:04;;;;;;;43.05;23.50;;;;;;;16.28;100.00;101246.84;4983843;28;20121;-89
2021/09/12 04:06:31;;;;;;;42.30;22.85;;;;;;;16.27;100.00;101247.88;4969724;28;20042;-88
2021/09/12 04:09:38;;;;;;;38.53;21.52;;;;;;;16.27;100.00;101241.63;4968596;28;20109;-89
2021/09/12 04:12:09;;;;;;;35.15;19.33;;;;;;;16.14;100.00;101231.47;4974057;28;20049;-90
2021/09/12 04:15:00;;;;;;;36.70;21.02;;;;;;;16.16;100.00;101235.66;4988161;28;20088;-88
2021/09/12 04:17:36;;;;;;;32.85;19.67;;;;;;;16.14;100.00;101235.03;5024806;28;20027;-87
2021/09/12 04:20:10;;;;;;;34.20;21.58;;;;;;;16.09;100.00;101239.34;4992679;28;20065;-87
2021/09/12 04:22:46;;;;;;;33.38;19.50;;;;;;;16.10;100.00;101241.00;4969239;28;20088;-88
2021/09/12 04:25:19;;;;;;;35.50;20.83;;;;;;;16.11;100.00;101237.25;5069440;28;20491;-89
2021/09/12 04:27:46;;;;;;;37.13;19.83;;;;;;;15.99;100.00;101245.88;4972003;28;20422;-89
2021/09/12 04:30:53;;;;;;;37.45;21.50;;;;;;;16.00;100.00;101242.16;4968558;28;20042;-89
2021/09/12 04:33:24;;;;;;;36.85;20.67;;;;;;;15.94;100.00;101239.34;5065725;28;20049;-87
2021/09/12 04:36:31;;;;;;;33.83;20.45;;;;;;;15.87;100.00;101238.44;4976844;28;20046;-90
2021/09/12 04:39:03;;;;;;;35.58;20.55;;;;;;;15.84;100.00;101247.75;4980763;28;20157;-91
2021/09/12 04:41:33;;;;;;;35.83;20.45;;;;;;;15.81;100.00;101247.31;4987030;28;20050;-89
2021/09/12 04:44:06;;;;;;;39.58;22.05;;;;;;;15.75;100.00;101240.78;4982547;28;20057;-88
2021/09/12 04:46:36;;;;;;;34.58;20.73;;;;;;;15.75;100.00;101243.47;4987795;28;20586;-88
2021/09/12 04:49:28;;;;;;;39.17;22.02;;;;;;;15.66;100.00;101244.56;4966599;28;20035;-89
2021/09/12 04:55:34;;;;;;;33.58;21.65;;;;;;;15.58;100.00;101249.03;5044870;28;20091;-90
2021/09/12 04:58:07;;;;;;;37.67;20.40;;;;;;;15.48;100.00;101248.50;4973286;28;20039;-89
2021/09/12 05:00:34;;;;;;;35.65;21.23;;;;;;;15.50;100.00;101249.13;4979835;28;20050;-89
2021/09/12 05:03:01;;;;;;;37.75;20.27;;;;;;;15.45;100.00;101253.41;4965409;28;20465;-89
2021/09/12 05:05:29;;;;;;;35.20;21.27;;;;;;;15.44;100.00;101252.56;4976278;28;20038;-90
2021/09/12 05:08:00;;;;;;;34.80;18.95;;;;;;;15.33;100.00;101256.59;5002069;28;20045;-88
2021/09/12 05:10:28;;;;;;;34.92;20.25;;;;;;;15.34;100.00;101262.84;4974463;28;20083;-89
2021/09/12 05:12:56;;;;;;;35.30;19.38;;;;;;;15.30;100.00;101272.31;4985678;28;20043;-88
2021/09/12 05:15:24;;;;;;;34.42;19.00;;;;;;;15.32;100.00;101275.69;4970536;28;20050;-90
2021/09/12 05:17:55;;;;;;;29.98;17.33;;;;;;;15.23;100.00;101271.38;4952369;28;20096;-89
2021/09/12 05:20:48;;;;;;;31.80;18.15;;;;;;;15.21;100.00;101276.13;4971705;28;20042;-90
2021/09/12 05:23:15;;;;;;;32.10;17.10;;;;;;;15.16;100.00;101265.84;5053356;28;20039;-90
2021/09/12 05:25:58;;;;;;;29.60;17.05;;;;;;;15.16;100.00;101275.81;4987421;28;20384;-91
2021/09/12 05:28:38;;;;;;;28.23;18.08;;;;;;;15.18;100.00;101285.44;5079016;28;20046;-90
2021/09/12 05:31:36;;;;;;;27.30;17.42;;;;;;;15.15;100.00;101282.25;4988322;28;20363;-89
2021/09/12 05:34:12;;;;;;;28.33;18.02;;;;;;;15.10;100.00;101283.66;5008138;28;20107;-89
2021/09/12 05:37:14;;;;;;;28.05;17.27;;;;;;;15.15;100.00;101293.06;4994359;28;20039;-90
2021/09/12 05:39:40;;;;;;;28.63;16.85;;;;;;;15.16;100.00;101290.19;5039150;28;20049;-91
2021/09/12 05:42:05;;;;;;;29.15;16.58;;;;;;;15.17;100.00;101281.06;5044125;28;20034;-90
2021/09/12 05:44:31;;;;;;;26.45;15.63;;;;;;;15.10;100.00;101294.47;5073275;28;20119;-92
2021/09/12 05:46:57;;;;;;;25.27;15.95;;;;;;;15.14;100.00;101291.41;5071494;28;20053;-89
2021/09/12 05:49:23;;;;;;;27.98;15.85;;;;;;;15.21;100.00;101286.94;4986178;28;20047;-92
2021/09/12 05:51:48;;;;;;;27.20;15.25;;;;;;;15.16;100.00;101286.63;5006160;28;20039;-90
2021/09/12 05:54:14;;;;;;;27.08;16.13;;;;;;;15.12;100.00;101289.72;5080785;28;20495;-90
2021/09/12 05:56:39;;;;;;;23.92;15.52;;;;;;;15.17;100.00;101294.59;4985953;28;20038;-88
2021/09/12 05:59:04;;;;;;;20.63;13.73;;;;;;;15.11;100.00;101295.31;4985508;28;20039;-89
2021/09/12 06:01:30;;;;;;;28.27;15.30;;;;;;;15.10;100.00;101294.47;4956026;28;20046;-87
2021/09/12 06:03:55;;;;;;;28.27;13.82;;;;;;;15.06;100.00;101303.13;5080371;28;20131;-88
2021/09/12 06:06:21;;;;;;;23.38;13.82;;;;;;;15.06;100.00;101305.81;5020278;28;20099;-89
2021/09/12 06:08:46;;;;;;;26.52;14.52;;;;;;;15.10;100.00;101305.28;4954092;28;20098;-88
2021/09/12 06:11:12;;;;;;;26.73;14.18;;;;;;;15.08;100.00;101303.78;4971074;28;20512;-90
2021/09/12 06:13:38;;;;;;;23.20;13.13;;;;;;;15.06;100.00;101300.41;4967290;28;20034;-89
2021/09/12 06:16:05;;;;;;;28.48;14.15;;;;;;;15.07;100.00;101305.63;5012734;28;20040;-89
2021/09/12 06:18:31;;;;;;;25.00;14.18;;;;;;;15.13;100.00;101304.06;5006111;28;20042;-91
2021/09/12 06:20:56;;;;;;;25.45;16.25;;;;;;;15.21;100.00;101308.56;5005224;28;20047;-91
2021/09/12 06:23:21;;;;;;;29.23;14.90;;;;;;;15.22;100.00;101303.00;5078351;28;20116;-90
2021/09/12 06:25:47;;;;;;;28.05;14.93;;;;;;;15.22;100.00;101302.13;4955348;28;20036;-90
2021/09/12 06:28:12;;;;;;;26.13;15.77;;;;;;;15.20;100.00;101304.19;4931219;28;20408;-89
2021/09/12 06:30:38;;;;;;;25.98;15.60;;;;;;;15.17;100.00;101310.81;4915178;28;20054;-90
2021/09/12 06:33:03;;;;;;;28.45;15.35;;;;;;;15.17;100.00;101304.56;4946125;28;20050;-88
2021/09/12 06:35:29;;;;;;;25.67;15.77;;;;;;;15.14;100.00;101303.06;4921777;28;20588;-89
2021/09/12 06:37:54;;;;;;;25.20;14.77;;;;;;;15.19;100.00;101299.78;4970432;28;20098;-90
2021/09/12 06:40:21;;;;;;;31.52;16.05;;;;;;;15.20;100.00;101307.72;4980171;28;20192;-92
2021/09/12 06:42:46;;;;;;;29.83;16.45;;;;;;;15.20;100.00;101306.91;4930133;28;20043;-91
2021/09/12 06:45:12;;;;;;;28.05;15.25;;;;;;;15.14;100.00;101304.94;4939844;28;20105;-89
2021/09/12 06:47:37;;;;;;;27.60;16.95;;;;;;;15.20;100.00;101309.59;4930926;28;20039;-90
2021/09/12 06:50:03;;;;;;;32.20;17.95;;;;;;;15.26;100.00;101314.28;4946643;28;20044;-90
2021/09/12 06:52:29;;;;;;;33.65;16.83;;;;;;;15.22;100.00;101312.94;5016547;28;20068;-91
2021/09/12 06:54:56;;;;;;;29.67;17.92;;;;;;;15.30;100.00;101320.97;4982377;28;20699;-91
2021/09/12 06:57:21;;;;;;;31.88;16.33;;;;;;;15.17;100.00;101315.38;4909646;28;20040;-89
2021/09/12 06:59:47;;;;;;;29.08;16.23;;;;;;;15.13;100.00;101314.88;4926781;28;20039;-90
2021/09/12 07:02:12;;;;;;;28.27;17.02;;;;;;;15.16;100.00;101317.22;4931096;28;20542;-90
2021/09/12 07:04:38;;;;;;;32.55;17.33;;;;;;;15.12;100.00;101319.44;4930968;29;20051;-90
2021/09/12 07:07:04;;;;;;;30.20;16.13;;;;;;;15.14;100.00;101321.16;4929787;28;20039;-88
2021/09/12 07:09:30;;;;;;;26.15;16.23;;;;;;;15.22;100.00;101329.16;4929573;28;20109;-88
2021/09/12 07:11:56;;;;;;;25.63;16.17;;;;;;;15.20;100.00;101309.59;4944839;28;20507;-90
2021/09/12 07:14:21;;;;;;;28.48;16.92;;;;;;;15.15;100.00;101315.53;4944523;29;20149;-87
2021/09/12 07:16:49;;;;;;;34.78;18.23;;;;;;;15.26;100.00;101319.69;4912528;28;20185;-88
2021/09/12 07:19:26;;;;;;;30.93;17.27;;;;;;;15.31;100.00;101319.97;4928635;28;20043;-91
2021/09/12 07:21:52;;;;;;;30.60;16.35;;;;;;;15.31;100.00;101323.53;4954726;28;20502;-88
2021/09/12 07:24:18;;;;;;;29.33;15.45;;;;;;;15.27;100.00;101321.34;4984915;28;20065;-89
2021/09/12 07:26:43;;;;;;;29.05;16.70;;;;;;;15.27;100.00;101318.66;4968002;28;20512;-91
2021/09/12 07:29:09;;;;;;;29.13;16.48;;;;;;;15.28;100.00;101325.75;4968366;28;20107;-87
2021/09/12 07:31:34;;;;;;;29.17;17.05;;;;;;;15.34;100.00;101325.03;4973260;28;20406;-90
2021/09/12 07:34:02;;;;;;;28.35;16.15;;;;;;;15.40;100.00;101327.00;4959262;28;20111;-88
2021/09/12 07:36:29;;;;;;;30.67;16.08;;;;;;;15.45;100.00;101330.00;4976727;28;20050;-89
2021/09/12 07:38:54;;;;;;;28.13;15.85;;;;;;;15.44;100.00;101322.88;4987657;28;20077;-87
2021/09/12 07:41:19;;;;;;;26.77;15.98;;;;;;;15.43;100.00;101321.22;4969704;28;20042;-88
2021/09/12 07:43:45;;;;;;;30.00;16.02;;;;;;;15.42;100.00;101322.25;4968939;28;20111;-88
2021/09/12 07:46:10;;;;;;;32.10;15.85;;;;;;;15.53;100.00;101332.59;4984841;28;20092;-88
2021/09/12 07:48:36;;;;;;;28.27;15.48;;;;;;;15.62;100.00;101329.81;5036953;28;20044;-89
2021/09/12 07:51:02;;;;;;;25.58;15.63;;;;;;;15.64;100.00;101336.72;5023566;28;20487;-90
2021/09/12 07:53:29;;;;;;;24.10;14.75;;;;;;;15.72;100.00;101330.44;4967594;28;20042;-90
2021/09/12 07:55:55;;;;;;;23.00;14.52;;;;;;;15.73;100.00;101332.94;5035450;28;20370;-92
2021/09/12 07:58:20;;;;;;;28.70;15.20;;;;;;;15.73;100.00;101329.41;4987003;28;20042;-88
2021/09/12 08:00:45;;;;;;;25.00;14.52;;;;;;;15.78;100.00;101341.34;5067086;28;20133;-88
2021/09/12 08:03:11;;;;;;;21.48;13.98;;;;;;;15.86;100.00;101345.84;4984167;28;20042;-88
2021/09/12 08:05:36;;;;;;;25.48;15.10;;;;;;;15.87;100.00;101344.81;4968947;28;20044;-89
2021/09/12 08:08:02;;;;;;;24.77;14.77;;;;;;;15.90;100.00;101344.44;4977425;28;20048;-90
2021/09/12 08:10:27;;;;;;;24.98;14.77;;;;;;;15.99;100.00;101332.47;5038339;28;20056;-89
2021/09/12 08:12:52;;;;;;;25.88;16.17;;;;;;;16.12;100.00;101331.00;5081933;28;20499;-90
2021/09/12 08:15:18;;;;;;;25.95;14.98;;;;;;;16.11;99.20;101334.72;5092916;28;20044;-89
2021/09/12 08:17:43;;;;;;;22.33;13.15;;;;;;;16.12;97.63;101331.84;5082279;28;20039;-89
2021/09/12 08:20:09;;;;;;;19.52;12.68;;;;;;;16.14;98.21;101346.03;5064885;28;20095;-89
2021/09/12 08:22:35;;;;;;;20.13;12.52;;;;;;;16.16;97.54;101337.72;4992624;28;20046;-89
2021/09/12 08:25:00;;;;;;;20.63;11.35;;;;;;;16.29;97.67;101337.06;4998488;28;20050;-89
2021/09/12 08:27:26;;;;;;;17.17;9.80;;;;;;;16.27;95.13;101339.94;5027492;28;20501;-89
2021/09/12 08:29:51;;;;;;;16.35;10.43;;;;;;;16.35;94.41;101331.72;5071409;28;20286;-89
2021/09/12 08:32:16;;;;;;;16.73;9.10;;;;;;;16.50;95.40;101349.81;4990984;28;20035;-90
2021/09/12 08:34:42;;;;;;;14.23;8.35;;;;;;;16.45;92.55;101340.38;5055333;28;20073;-90
2021/09/12 08:37:10;;;;;;;17.38;8.13;;;;;;;16.48;92.47;101341.88;5033224;28;20050;-87
2021/09/12 08:39:36;;;;;;;12.27;7.65;;;;;;;16.56;91.94;101343.66;4972428;28;20054;-87
2021/09/12 08:42:01;;;;;;;13.35;6.97;;;;;;;16.60;91.49;101344.94;5017983;28;20744;-88
2021/09/12 08:44:27;;;;;;;10.32;6.80;;;;;;;16.78;91.94;101350.81;4972503;28;20046;-86
2021/09/12 08:46:53;;;;;;;10.60;6.50;;;;;;;16.87;90.93;101344.25;4995525;28;20504;-88
2021/09/12 08:49:18;;;;;;;12.50;5.65;;;;;;;16.92;89.65;101355.34;4969565;28;20456;-92
2021/09/12 08:51:44;;;;;;;7.70;4.53;;;;;;;16.97;88.39;101352.03;5063937;28;20039;-90
2021/09/12 08:54:09;;;;;;;10.48;5.22;;;;;;;16.98;87.78;101356.44;4975668;28;20046;-89
2021/09/12 08:56:35;;;;;;;8.70;4.97;;;;;;;16.96;87.41;101360.38;5012340;28;20590;-90
2021/09/12 08:59:01;;;;;;;13.23;5.35;;;;;;;16.94;86.77;101357.03;5055959;28;20451;-92
2021/09/12 09:01:35;;;;;;;11.38;5.35;;;;;;;17.02;87.21;101357.72;5032593;28;20117;-90
2021/09/12 09:04:02;;;;;;;11.32;5.20;;;;;;;17.10;86.83;101362.19;5022638;28;20114;-89
2021/09/12 09:06:37;;;;;;;10.75;5.45;;;;;;;17.13;86.75;101368.06;5021438;28;20042;-88
2021/09/12 09:09:04;;;;;;;8.45;4.22;;;;;;;17.14;85.75;101363.47;4975590;28;20061;-89
2021/09/12 09:11:37;;;;;;;10.05;5.35;;;;;;;17.24;86.51;101377.56;4987587;28;20046;-88
2021/09/12 09:14:16;;;;;;;7.60;4.40;;;;;;;17.24;84.62;101369.44;4990536;28;20107;-90
2021/09/12 09:16:43;;;;;;;7.95;3.78;;;;;;;17.24;83.96;101366.72;4979294;28;20043;-90
2021/09/12 09:19:09;;;;;;;6.88;3.45;;;;;;;17.22;81.55;101366.06;5000233;28;20392;-89
2021/09/12 09:21:43;;;;;;;7.30;3.22;;;;;;;17.27;83.61;101360.91;5043916;28;20046;-89
2021/09/12 09:24:23;;;;;;;5.40;2.95;;;;;;;17.42;84.15;101354.56;5045712;28;20057;-90
2021/09/12 09:26:57;;;;;;;9.93;4.13;;;;;;;17.54;84.22;101359.25;5065265;28;20125;-88
2021/09/12 09:29:30;;;;;;;6.03;3.58;;;;;;;17.66;84.75;101359.53;5053013;28;20058;-91
2021/09/12 09:32:08;;;;;;;7.18;3.63;;;;;;;17.68;83.19;101354.78;4986997;28;20122;-89
2021/09/12 09:34:34;;;;;;;9.45;4.18;;;;;;;17.74;83.83;101343.13;5055909;28;20101;-89
2021/09/12 09:37:13;;;;;;;6.63;3.22;;;;;;;17.72;81.69;101350.66;4976055;28;20054;-89
2021/09/12 09:39:44;;;;;;;6.50;2.95;;;;;;;17.62;79.78;101361.00;4979474;28;20354;-89
2021/09/12 09:42:42;;;;;;;8.13;3.00;;;;;;;17.67;80.46;101360.41;4987830;28;20053;-89
2021/09/12 09:45:16;;;;;;;6.95;2.60;;;;;;;17.65;80.52;101355.16;4969638;28;20030;-89
2021/09/12 09:47:45;;;;;;;5.97;2.90;;;;;;;17.80;81.44;101358.63;4989304;28;20753;-89
2021/09/12 09:50:17;;;;;;;6.60;3.03;;;;;;;17.80;81.21;101358.63;5026797;28;20036;-88
2021/09/12 09:52:46;;;;;;;6.28;3.22;;;;;;;17.89;80.17;101361.22;4988219;28;20479;-89
2021/09/12 09:55:15;;;;;;;6.30;2.88;;;;;;;17.87;80.00;101357.88;4977875;28;20047;-89
2021/09/12 09:57:43;;;;;;;6.80;3.60;;;;;;;17.99;79.39;101350.84;4987086;28;20035;-89
2021/09/12 10:00:08;;;;;;;7.47;3.00;;;;;;;18.05;79.65;101360.91;5009525;28;20047;-90
2021/09/12 10:02:35;;;;;;;7.50;2.95;;;;;;;18.01;79.06;101354.19;4967704;28;20047;-90
2021/09/12 10:05:06;;;;;;;6.75;3.63;;;;;;;18.18;80.49;101350.13;5027852;28;20066;-88
2021/09/12 10:07:33;;;;;;;6.93;3.33;;;;;;;18.24;78.92;101341.16;5021812;28;20122;-89
2021/09/12 10:10:00;;;;;;;5.70;3.78;;;;;;;18.26;79.19;101343.66;5034354;28;20105;-92
2021/09/12 10:12:26;;;;;;;7.75;3.83;;;;;;;18.27;79.61;101343.47;5005680;28;20050;-92
2021/09/12 10:14:56;;;;;;;8.05;3.40;;;;;;;18.27;78.66;101343.47;4991515;28;20126;-92
2021/09/12 10:17:24;;;;;;;8.63;4.28;;;;;;;18.33;77.90;101344.56;4992793;28;20474;-92
2021/09/12 10:19:50;;;;;;;7.70;4.07;;;;;;;18.44;79.57;101343.13;4974775;28;20041;-91
2021/09/12 10:22:19;;;;;;;8.05;3.53;;;;;;;18.59;80.34;101346.53;4993422;28;20390;-92
2021/09/12 10:25:03;;;;;;;7.07;3.60;;;;;;;18.78;78.59;101338.66;5024352;28;20037;-91
2021/09/12 10:27:32;;;;;;;9.35;3.00;;;;;;;18.89;78.60;101338.06;5042612;28;20201;-91
2021/09/12 10:29:58;;;;;;;6.68;2.92;;;;;;;18.97;76.00;101332.44;5047502;28;20041;-93
2021/09/12 10:32:51;;;;;;;6.68;3.10;;;;;;;18.70;74.16;101329.63;5057537;28;20041;-91
2021/09/12 10:35:23;;;;;;;5.63;2.60;;;;;;;18.75;76.26;101336.34;5053276;28;20048;-94
2021/09/12 10:38:11;;;;;;;7.10;3.30;;;;;;;18.79;74.86;101335.75;5053445;28;20048;-92
2021/09/12 10:40:48;;;;;;;8.23;3.55;;;;;;;18.75;74.10;101329.03;5056143;28;20044;-93
2021/09/12 10:43:26;;;;;;;8.50;3.22;;;;;;;18.65;74.59;101334.84;5048744;28;20532;-93
2021/09/12 10:46:08;;;;;;;6.95;3.15;;;;;;;18.59;74.90;101335.66;5046945;28;20090;-93
2021/09/12 10:48:44;;;;;;;8.60;3.47;;;;;;;18.74;74.64;101342.84;5060794;28;20056;-92
2021/09/12 10:51:18;;;;;;;6.25;3.05;;;;;;;18.74;73.48;101340.13;4977453;28;22237;-92
2021/09/12 10:53:47;;;;;;;7.28;3.10;;;;;;;18.68;75.51;101341.75;4994592;28;20049;-92
2021/09/12 10:56:13;;;;;;;9.18;3.90;;;;;;;18.81;74.57;101341.81;4976626;28;20049;-93
2021/09/12 10:58:39;;;;;;;9.00;4.13;;;;;;;18.89;75.96;101351.66;5026051;28;20049;-93
2021/09/12 11:01:08;;;;;;;8.57;4.10;;;;;;;18.99;76.81;101345.81;5034548;28;20044;-93
2021/09/12 11:03:35;;;;;;;9.27;4.13;;;;;;;19.06;77.40;101344.78;5036436;28;20041;-94
2021/09/12 11:06:01;;;;;;;10.75;4.47;;;;;;;18.95;77.20;101348.13;5017791;28;20574;-91
2021/09/12 11:08:39;;;;;;;9.40;3.90;;;;;;;18.93;78.70;101347.47;5041015;28;20442;-89
2021/09/12 11:11:07;;;;;;;8.18;3.60;;;;;;;18.97;77.02;101331.59;5049285;28;20106;-89
2021/09/12 11:13:33;;;;;;;8.90;4.53;;;;;;;18.84;76.98;101351.44;5050781;28;20040;-89
2021/09/12 11:16:12;;;;;;;8.52;4.55;;;;;;;18.89;79.08;101348.94;5042481;28;20041;-91
2021/09/12 11:19:00;;;;;;;9.85;4.28;;;;;;;19.04;75.53;101344.16;5052233;28;20093;-91
2021/09/12 11:21:45;;;;;;;8.98;3.47;;;;;;;19.09;76.24;101344.38;5035917;28;20449;-91
2021/09/12 11:24:11;;;;;;;6.05;3.28;;;;;;;18.86;73.51;101338.47;4977278;28;20070;-91
2021/09/12 11:26:47;;;;;;;7.82;3.70;;;;;;;18.87;75.08;101341.00;4984952;28;20077;-89
2021/09/12 11:29:18;;;;;;;6.53;3.22;;;;;;;19.06;76.32;101344.78;4961977;28;20054;-90
2021/09/12 11:31:49;;;;;;;10.45;3.17;;;;;;;19.14;76.11;101347.31;4973142;28;20107;-91
2021/09/12 11:34:17;;;;;;;7.05;3.45;;;;;;;19.11;74.04;101345.00;4984701;28;20115;-90
2021/09/12 11:36:45;;;;;;;6.60;3.33;;;;;;;19.09;74.48;101351.72;5072107;28;20034;-91
2021/09/12 11:39:12;;;;;;;6.70;2.97;;;;;;;19.12;76.01;101341.25;5032144;28;20487;-90
2021/09/12 11:41:37;;;;;;;7.57;3.60;;;;;;;19.12;76.83;101352.13;4971445;28;20684;-89
2021/09/12 11:44:03;;;;;;;9.85;3.40;;;;;;;19.12;74.74;101352.13;4988432;28;20117;-90
2021/09/12 11:46:29;;;;;;;6.50;3.08;;;;;;;18.88;75.22;101345.41;4991753;28;20526;-91
2021/09/12 11:49:06;;;;;;;8.20;3.60;;;;;;;18.89;75.85;101351.66;4990400;28;20121;-91